Time;durP1;ratioP1;P1;durP2;ratioP2;P2;SDS_P1;SDS_P2;PMS_P1;PMS_P2;Temp;Humidity;BMP_temperature;BMP_pressure;BME280_temperature;BME280_humidity;BME280_pressure;Samples;Min_cycle;Max_cycle;Signal;HPM_P1;HPM_P2
2021/10/12 00:00:59;;;;;;;73.72;29.30;;;;;;;6.74;100.00;96106.59;5051862;28;20037;-78
2021/10/12 00:03:24;;;;;;;65.65;28.67;;;;;;;6.77;100.00;96110.59;5047663;28;20033;-79
2021/10/12 00:05:50;;;;;;;67.78;30.30;;;;;;;6.76;100.00;96117.63;5031448;28;20049;-78
2021/10/12 00:08:15;;;;;;;69.88;29.15;;;;;;;6.74;100.00;96111.84;5051198;28;20737;-78
2021/10/12 00:10:41;;;;;;;82.03;31.45;;;;;;;6.74;100.00;96111.84;5051584;28;20094;-78
2021/10/12 00:13:06;;;;;;;74.47;28.35;;;;;;;6.79;100.00;96112.97;5036040;28;20052;-78
2021/10/12 00:15:32;;;;;;;71.40;28.30;;;;;;;6.84;100.00;96115.69;5030721;28;20042;-79
2021/10/12 00:17:58;;;;;;;64.75;26.40;;;;;;;6.84;100.00;96116.50;5048637;28;20077;-78
2021/10/12 00:20:24;;;;;;;70.75;28.23;;;;;;;6.89;100.00;96119.19;5051638;28;20045;-78
2021/10/12 00:22:49;;;;;;;66.25;27.10;;;;;;;6.86;100.00;96118.88;5050215;28;20526;-78
2021/10/12 00:25:15;;;;;;;67.85;28.25;;;;;;;6.83;100.00;96119.34;5047779;28;20097;-78
2021/10/12 00:27:40;;;;;;;66.20;25.55;;;;;;;6.97;100.00;96125.09;5050156;28;20036;-78
2021/10/12 00:30:06;;;;;;;72.57;29.27;;;;;;;6.90;100.00;96125.25;5049460;28;20554;-80
2021/10/12 00:32:33;;;;;;;75.05;28.13;;;;;;;6.87;100.00;96130.94;5033316;28;20107;-79
2021/10/12 00:34:59;;;;;;;73.82;27.70;;;;;;;6.89;100.00;96128.88;5048153;28;20045;-79
2021/10/12 00:37:24;;;;;;;68.85;26.33;;;;;;;6.94;100.00;96131.63;5049642;28;20055;-79
2021/10/12 00:39:50;;;;;;;66.57;27.55;;;;;;;6.97;100.00;96131.16;5050600;28;20045;-78
2021/10/12 00:42:16;;;;;;;73.28;27.67;;;;;;;6.94;100.00;96129.00;5042762;28;20752;-80
2021/10/12 00:44:41;;;;;;;72.82;28.00;;;;;;;7.02;100.00;96138.31;5029692;28;20425;-79
2021/10/12 00:47:07;;;;;;;68.88;27.00;;;;;;;7.07;100.00;96125.34;5048711;28;20041;-80
2021/10/12 00:49:33;;;;;;;67.43;28.20;;;;;;;6.94;100.00;96121.16;5050014;28;20106;-80
2021/10/12 00:51:58;;;;;;;68.80;26.50;;;;;;;6.92;100.00;96123.19;5051655;28;20494;-79
2021/10/12 00:54:24;;;;;;;70.43;28.08;;;;;;;6.99;100.00;96117.84;5062446;28;20052;-79
2021/10/12 00:56:50;;;;;;;64.63;26.23;;;;;;;6.91;100.00;96117.16;5051893;28;20055;-79
2021/10/12 00:59:15;;;;;;;64.43;26.83;;;;;;;7.15;100.00;96114.47;5051591;28;20048;-79
2021/10/12 01:01:41;;;;;;;58.60;25.02;;;;;;;7.17;100.00;96107.19;5050971;28;20033;-80
2021/10/12 01:04:09;;;;;;;61.92;24.67;;;;;;;7.27;100.00;96114.47;5046005;28;20068;-80
2021/10/12 01:06:35;;;;;;;60.50;25.23;;;;;;;7.04;100.00;96116.13;5049128;28;20056;-79
2021/10/12 01:09:01;;;;;;;65.60;26.23;;;;;;;6.97;100.00;96115.44;5049889;28;20049;-79
2021/10/12 01:11:27;;;;;;;61.50;25.17;;;;;;;6.96;100.00;96108.63;5050692;28;20095;-79
2021/10/12 01:13:53;;;;;;;63.65;24.85;;;;;;;6.92;100.00;96107.47;5048484;28;20049;-79
2021/10/12 01:16:19;;;;;;;58.53;24.15;;;;;;;6.86;100.00;96106.59;5031883;28;20493;-79
2021/10/12 01:18:58;;;;;;;57.75;23.33;;;;;;;6.93;100.00;96103.84;5050127;28;20098;-79
2021/10/12 01:21:29;;;;;;;54.05;22.48;;;;;;;6.93;100.00;96101.22;5049475;28;20048;-78
2021/10/12 01:23:55;;;;;;;49.20;22.60;;;;;;;6.96;100.00;96092.91;5043874;28;20512;-79
2021/10/12 01:26:21;;;;;;;65.22;23.27;;;;;;;6.91;100.00;96092.81;5062139;28;20049;-79
2021/10/12 01:28:47;;;;;;;60.00;23.45;;;;;;;6.89;100.00;96090.41;5067563;28;20172;-80
2021/10/12 01:31:19;;;;;;;64.63;24.73;;;;;;;6.85;100.00;96085.88;5049193;28;20083;-79
2021/10/12 01:33:45;;;;;;;64.60;23.38;;;;;;;6.89;100.00;96071.31;5012539;28;20049;-79
2021/10/12 01:36:11;;;;;;;66.63;23.45;;;;;;;6.81;100.00;96074.28;5045354;28;20395;-80
2021/10/12 01:38:36;;;;;;;55.05;22.02;;;;;;;6.98;100.00;96069.91;5050006;28;20049;-79
2021/10/12 01:41:02;;;;;;;63.97;22.35;;;;;;;6.92;100.00;96065.63;5046996;28;20041;-81
2021/10/12 01:43:27;;;;;;;53.45;21.73;;;;;;;7.00;100.00;96065.25;5049932;28;20098;-77
2021/10/12 01:46:01;;;;;;;57.50;22.90;;;;;;;6.80;100.00;96063.03;5036999;28;20072;-79
2021/10/12 01:48:26;;;;;;;57.40;22.15;;;;;;;6.90;100.00;96059.84;5030002;28;20613;-79
2021/10/12 01:50:52;;;;;;;55.13;22.45;;;;;;;6.81;100.00;96063.81;5040876;28;20051;-80
2021/10/12 01:53:17;;;;;;;56.30;22.95;;;;;;;6.73;100.00;96062.38;5048692;28;20044;-81
2021/10/12 01:55:43;;;;;;;62.20;22.98;;;;;;;6.71;100.00;96065.22;5051584;28;20098;-79
2021/10/12 01:58:08;;;;;;;64.75;23.48;;;;;;;6.80;100.00;96057.03;5049298;28;20120;-80
2021/10/12 02:00:34;;;;;;;59.95;23.73;;;;;;;6.77;100.00;96058.28;5049792;28;20482;-79
2021/10/12 02:03:00;;;;;;;55.65;23.02;;;;;;;6.82;100.00;96049.72;5041677;28;20176;-80
2021/10/12 02:05:26;;;;;;;57.17;22.90;;;;;;;6.76;100.00;96052.22;5042827;28;20084;-79
2021/10/12 02:07:51;;;;;;;65.57;23.48;;;;;;;6.80;100.00;96062.25;5030527;28;20453;-79
2021/10/12 02:10:17;;;;;;;65.15;24.80;;;;;;;6.75;100.00;96061.13;5032422;28;20048;-79
2021/10/12 02:12:43;;;;;;;61.47;24.02;;;;;;;6.87;100.00;96048.00;5047516;28;20041;-78
2021/10/12 02:15:09;;;;;;;66.63;24.85;;;;;;;6.94;100.00;96047.88;5024285;28;20119;-78
2021/10/12 02:17:34;;;;;;;60.17;23.40;;;;;;;7.01;100.00;96042.50;5028327;28;20125;-78
2021/10/12 02:20:00;;;;;;;54.85;23.42;;;;;;;7.16;100.00;96039.38;5029040;28;20068;-78
2021/10/12 02:22:27;;;;;;;61.03;24.02;;;;;;;7.14;100.00;96031.78;5050840;28;20070;-79
2021/10/12 02:24:52;;;;;;;66.32;23.73;;;;;;;7.10;100.00;96031.44;5050645;28;20053;-78
2021/10/12 02:27:18;;;;;;;60.90;23.45;;;;;;;7.02;100.00;96034.41;5048977;28;20040;-78
2021/10/12 02:29:44;;;;;;;61.72;23.63;;;;;;;6.95;100.00;96028.53;5033406;28;20108;-78
2021/10/12 02:32:09;;;;;;;59.38;23.00;;;;;;;7.05;100.00;96031.34;5030906;28;21021;-78
2021/10/12 02:34:35;;;;;;;64.40;23.58;;;;;;;6.93;100.00;96030.59;5043041;28;20562;-78
2021/10/12 02:37:01;;;;;;;61.35;24.38;;;;;;;6.80;100.00;96025.63;5042889;28;20041;-78
2021/10/12 02:39:26;;;;;;;64.10;24.83;;;;;;;6.97;100.00;96025.66;5045746;28;20068;-79
2021/10/12 02:41:52;;;;;;;60.55;23.75;;;;;;;6.83;100.00;96015.47;5050489;28;20044;-78
2021/10/12 02:44:17;;;;;;;58.55;23.67;;;;;;;6.97;100.00;96016.00;5047387;28;20048;-78
2021/10/12 02:46:43;;;;;;;60.85;23.35;;;;;;;6.98;100.00;96022.81;5047615;28;20094;-78
2021/10/12 02:49:08;;;;;;;64.68;23.67;;;;;;;6.87;100.00;96015.81;5048574;28;20466;-77
2021/10/12 02:51:34;;;;;;;56.10;22.95;;;;;;;6.85;100.00;96017.88;5051741;28;20045;-78
2021/10/12 02:53:59;;;;;;;65.35;22.95;;;;;;;6.79;100.00;96014.34;5045823;28;20049;-78
2021/10/12 02:56:25;;;;;;;63.53;23.70;;;;;;;6.73;100.00;96016.06;5029974;28;20050;-78
2021/10/12 02:58:50;;;;;;;63.70;23.83;;;;;;;6.76;100.00;96013.00;5041303;28;20056;-78
2021/10/12 03:01:16;;;;;;;71.30;24.77;;;;;;;6.67;100.00;96011.78;5050390;28;20622;-78
2021/10/12 03:03:42;;;;;;;70.88;25.63;;;;;;;6.56;100.00;95999.53;5012912;28;20080;-78
2021/10/12 03:06:07;;;;;;;70.40;24.63;;;;;;;6.67;100.00;96001.31;5045211;28;20033;-79
2021/10/12 03:08:33;;;;;;;68.05;23.33;;;;;;;6.63;100.00;95994.97;5050531;28;20039;-78
2021/10/12 03:10:58;;;;;;;72.57;25.40;;;;;;;6.53;100.00;95997.38;5041354;28;20052;-78
2021/10/12 03:13:24;;;;;;;62.67;24.17;;;;;;;6.74;100.00;95991.50;5052058;28;20049;-78
2021/10/12 03:15:49;;;;;;;65.20;23.50;;;;;;;6.85;100.00;95992.50;5034454;28;20131;-79
2021/10/12 03:18:15;;;;;;;65.03;23.85;;;;;;;6.84;100.00;95992.72;5038234;28;20068;-78
2021/10/12 03:20:41;;;;;;;61.97;23.42;;;;;;;6.85;100.00;95991.69;5062181;28;20516;-78
2021/10/12 03:23:07;;;;;;;56.38;22.27;;;;;;;6.85;100.00;95989.09;5050438;28;20049;-78
2021/10/12 03:25:32;;;;;;;62.75;23.00;;;;;;;6.79;100.00;95987.41;5039504;28;20501;-78
2021/10/12 03:27:58;;;;;;;64.85;23.55;;;;;;;6.72;100.00;95988.34;5051983;28;20052;-79
2021/10/12 03:30:23;;;;;;;66.30;23.30;;;;;;;6.78;100.00;95986.63;5033707;28;20037;-79
2021/10/12 03:32:49;;;;;;;63.95;22.48;;;;;;;6.82;100.00;95981.72;5035592;28;20071;-78
2021/10/12 03:35:19;;;;;;;60.00;23.58;;;;;;;6.80;100.00;95976.72;5035699;28;20151;-79
2021/10/12 03:37:44;;;;;;;57.30;21.23;;;;;;;6.80;100.00;95989.00;5052398;28;20486;-78
2021/10/12 03:40:11;;;;;;;55.53;22.05;;;;;;;6.79;100.00;95980.34;5048063;28;20049;-78
2021/10/12 03:42:36;;;;;;;63.92;23.10;;;;;;;6.80;100.00;95973.31;5051968;28;20048;-78
2021/10/12 03:45:02;;;;;;;59.30;22.25;;;;;;;6.74;100.00;95964.56;5048618;28;20049;-78
2021/10/12 03:47:28;;;;;;;57.53;21.63;;;;;;;6.69;100.00;95957.41;5038071;28;20041;-79
2021/10/12 03:49:53;;;;;;;55.30;21.27;;;;;;;6.73;100.00;95948.06;5051957;28;20402;-79
2021/10/12 03:52:19;;;;;;;60.75;22.25;;;;;;;6.74;100.00;95941.03;5050923;28;20120;-79
2021/10/12 03:54:44;;;;;;;57.45;21.05;;;;;;;6.76;100.00;95947.59;5034242;28;20041;-80
2021/10/12 03:57:10;;;;;;;56.15;21.20;;;;;;;6.69;100.00;95939.09;5051373;28;20457;-78
2021/10/12 03:59:35;;;;;;;50.55;20.30;;;;;;;6.66;100.00;95947.41;5047874;28;20049;-78
2021/10/12 04:02:01;;;;;;;55.97;21.63;;;;;;;6.64;100.00;95933.78;5047120;28;20064;-77
2021/10/12 04:04:27;;;;;;;61.40;21.20;;;;;;;6.56;100.00;95939.38;5057716;28;20041;-80
2021/10/12 04:06:52;;;;;;;59.83;21.85;;;;;;;6.53;100.00;95927.56;5051538;28;20068;-78
2021/10/12 04:09:18;;;;;;;56.30;20.88;;;;;;;6.52;100.00;95925.19;5050924;28;20048;-78
2021/10/12 04:11:44;;;;;;;60.65;21.60;;;;;;;6.48;100.00;95939.75;5039270;28;20057;-78
2021/10/12 04:14:09;;;;;;;56.50;21.45;;;;;;;6.49;100.00;95925.66;5038330;28;20037;-78
2021/10/12 04:16:36;;;;;;;55.80;22.60;;;;;;;6.49;100.00;95925.66;5045609;28;20040;-78
2021/10/12 04:19:01;;;;;;;55.53;19.67;;;;;;;6.48;100.00;95924.88;5053696;28;20497;-78
2021/10/12 04:21:27;;;;;;;60.88;21.05;;;;;;;6.50;100.00;95922.03;5068736;28;20037;-79
2021/10/12 04:23:53;;;;;;;56.70;20.70;;;;;;;6.49;100.00;95926.44;5051204;28;20150;-78
2021/10/12 04:26:19;;;;;;;57.00;21.38;;;;;;;6.48;100.00;95918.81;5028964;28;20045;-77
2021/10/12 04:28:45;;;;;;;60.42;20.33;;;;;;;6.47;100.00;95906.81;5048828;28;20600;-78
2021/10/12 04:31:11;;;;;;;63.60;21.20;;;;;;;6.45;100.00;95903.59;5051549;28;20076;-80
2021/10/12 04:33:37;;;;;;;59.58;20.30;;;;;;;6.47;100.00;95901.56;5047859;28;20411;-79
2021/10/12 04:36:02;;;;;;;58.53;21.30;;;;;;;6.41;100.00;95904.06;5034211;28;20045;-78
2021/10/12 04:38:28;;;;;;;62.80;20.98;;;;;;;6.43;100.00;95890.78;5050298;28;20102;-79
2021/10/12 04:40:54;;;;;;;51.75;20.42;;;;;;;6.49;100.00;95891.66;5050905;28;20425;-77
2021/10/12 04:43:21;;;;;;;57.03;20.92;;;;;;;6.49;100.00;95881.19;5036349;28;20042;-78
2021/10/12 04:45:46;;;;;;;58.42;21.38;;;;;;;6.47;100.00;95885.88;5047632;28;20041;-79
2021/10/12 04:48:15;;;;;;;52.78;21.13;;;;;;;6.45;100.00;95877.47;5071293;28;20094;-79
2021/10/12 04:50:40;;;;;;;54.42;20.00;;;;;;;6.49;100.00;95881.19;5043730;28;20049;-79
2021/10/12 04:53:06;;;;;;;56.38;20.77;;;;;;;6.47;100.00;95876.22;5049348;28;20597;-79
2021/10/12 04:55:32;;;;;;;58.53;20.02;;;;;;;6.47;100.00;95876.22;5050720;28;20421;-78
2021/10/12 04:57:58;;;;;;;52.90;19.33;;;;;;;6.45;100.00;95867.00;5050498;28;20053;-79
2021/10/12 05:00:24;;;;;;;47.85;19.15;;;;;;;6.38;100.00;95873.19;5052611;28;20037;-77
2021/10/12 05:02:50;;;;;;;51.33;19.33;;;;;;;6.41;100.00;95871.94;5043037;28;20072;-79
2021/10/12 05:05:15;;;;;;;52.53;20.08;;;;;;;6.39;100.00;95868.72;5032388;28;20125;-78
2021/10/12 05:07:41;;;;;;;54.42;19.95;;;;;;;6.40;100.00;95871.09;5046892;28;20041;-79
2021/10/12 05:10:07;;;;;;;51.83;19.85;;;;;;;6.39;100.00;95869.53;5039218;28;20037;-79
2021/10/12 05:12:32;;;;;;;51.92;19.40;;;;;;;6.38;100.00;95865.34;5033919;28;20041;-80
2021/10/12 05:14:58;;;;;;;52.50;19.02;;;;;;;6.42;100.00;95868.25;5028557;28;20095;-78
2021/10/12 05:17:46;;;;;;;53.38;18.92;;;;;;;6.43;100.00;95869.06;5048410;28;20048;-79
2021/10/12 05:20:12;;;;;;;47.53;17.98;;;;;;;6.43;100.00;95882.16;5043980;28;20091;-79
2021/10/12 05:22:37;;;;;;;51.65;19.00;;;;;;;6.39;100.00;95884.41;5048094;28;20483;-78
2021/10/12 05:25:03;;;;;;;58.58;19.48;;;;;;;6.44;100.00;95886.31;5032791;28;20073;-79
2021/10/12 05:27:30;;;;;;;52.28;19.95;;;;;;;6.49;100.00;95889.03;5051990;28;20044;-79
2021/10/12 05:29:56;;;;;;;53.38;19.52;;;;;;;6.39;100.00;95882.63;5071300;28;20051;-79
2021/10/12 05:32:22;;;;;;;52.30;20.27;;;;;;;6.59;100.00;95884.00;5052837;28;20044;-80
2021/10/12 05:34:47;;;;;;;57.30;20.00;;;;;;;6.57;100.00;95880.84;5045625;28;20511;-78
2021/10/12 05:37:13;;;;;;;53.47;20.10;;;;;;;6.58;100.00;95877.19;5048779;28;20043;-79
2021/10/12 05:39:39;;;;;;;53.70;20.92;;;;;;;6.62;100.00;95878.28;5044071;28;20049;-80
2021/10/12 05:42:04;;;;;;;47.92;20.20;;;;;;;6.70;100.00;95885.75;5038280;28;20045;-79
2021/10/12 05:44:30;;;;;;;57.05;21.13;;;;;;;6.59;100.00;95886.63;5043428;28;20055;-78
2021/10/12 05:46:55;;;;;;;54.30;20.13;;;;;;;6.69;100.00;95884.16;5046172;28;20044;-78
2021/10/12 05:49:21;;;;;;;53.00;20.05;;;;;;;6.78;100.00;95891.66;5057748;28;20611;-78
2021/10/12 05:51:47;;;;;;;52.83;19.10;;;;;;;6.79;100.00;95888.00;5049481;28;20457;-78
2021/10/12 05:54:19;;;;;;;48.00;19.30;;;;;;;6.75;100.00;95888.47;5044760;28;20033;-79
2021/10/12 05:56:55;;;;;;;48.25;19.70;;;;;;;6.72;100.00;95888.97;5038577;28;20037;-78
2021/10/12 05:59:21;;;;;;;48.13;19.73;;;;;;;6.90;100.00;95889.78;5051219;28;20056;-79
2021/10/12 06:01:47;;;;;;;52.70;20.75;;;;;;;6.88;100.00;95881.34;5032073;28;20044;-78
2021/10/12 06:04:12;;;;;;;52.03;18.90;;;;;;;6.89;100.00;95881.09;5045523;28;20045;-78
2021/10/12 06:06:38;;;;;;;56.22;19.88;;;;;;;6.88;100.00;95883.97;5049474;28;20041;-79
2021/10/12 06:09:05;;;;;;;55.55;20.13;;;;;;;6.89;100.00;95872.47;5051540;28;20045;-80
2021/10/12 06:11:31;;;;;;;50.90;19.52;;;;;;;6.87;100.00;95866.69;5041660;28;20046;-78
2021/10/12 06:13:56;;;;;;;45.25;18.58;;;;;;;6.83;100.00;95868.19;5030907;28;20044;-78
2021/10/12 06:16:23;;;;;;;53.75;18.92;;;;;;;6.81;100.00;95875.47;5057721;28;20059;-79
2021/10/12 06:18:49;;;;;;;52.03;19.75;;;;;;;6.78;100.00;95873.34;5053437;28;20044;-78
2021/10/12 06:21:14;;;;;;;47.38;18.55;;;;;;;6.92;100.00;95872.00;5050510;28;20653;-79
2021/10/12 06:23:40;;;;;;;56.65;19.15;;;;;;;6.93;100.00;95874.38;5025869;28;20053;-78
2021/10/12 06:26:06;;;;;;;46.03;19.75;;;;;;;6.91;100.00;95878.25;5050583;28;20055;-79
2021/10/12 06:28:32;;;;;;;46.70;18.55;;;;;;;6.94;100.00;95869.97;5049588;28;20096;-78
2021/10/12 06:30:58;;;;;;;46.88;18.25;;;;;;;6.98;100.00;95880.72;5049351;28;20148;-78
2021/10/12 06:33:24;;;;;;;48.20;19.73;;;;;;;6.91;100.00;95876.44;5027107;28;20053;-79
2021/10/12 06:35:50;;;;;;;45.67;19.15;;;;;;;6.88;100.00;95878.72;5032525;28;20099;-80
2021/10/12 06:38:16;;;;;;;57.17;20.13;;;;;;;6.86;100.00;95884.19;5048950;28;20131;-78
2021/10/12 06:40:42;;;;;;;53.80;19.42;;;;;;;6.99;100.00;95880.50;5047370;28;20544;-78
2021/10/12 06:43:09;;;;;;;52.70;20.20;;;;;;;7.04;100.00;95874.53;5029601;28;20048;-80
2021/10/12 06:45:37;;;;;;;48.22;19.80;;;;;;;7.06;100.00;95868.03;5035362;28;20053;-78
2021/10/12 06:48:03;;;;;;;51.88;19.65;;;;;;;7.08;100.00;95870.41;5018905;28;20050;-79
2021/10/12 06:50:29;;;;;;;47.25;18.95;;;;;;;7.03;100.00;95873.75;5052405;28;20045;-80
2021/10/12 06:52:55;;;;;;;45.75;18.55;;;;;;;7.02;100.00;95872.16;5048249;28;20052;-78
2021/10/12 06:55:21;;;;;;;48.00;19.08;;;;;;;7.05;100.00;95870.91;5043369;28;20033;-78
2021/10/12 06:57:46;;;;;;;51.90;20.35;;;;;;;7.00;100.00;95874.22;5052748;28;20490;-78
2021/10/12 07:00:14;;;;;;;48.80;18.63;;;;;;;7.08;100.00;95880.88;5053964;28;20149;-78
2021/10/12 07:02:41;;;;;;;50.88;20.13;;;;;;;7.05;100.00;95876.94;5051606;28;20048;-78
2021/10/12 07:05:06;;;;;;;43.00;18.45;;;;;;;7.04;100.00;95877.97;5054363;28;20082;-79
2021/10/12 07:07:32;;;;;;;47.50;19.35;;;;;;;7.09;100.00;95883.25;5053291;28;20110;-78
2021/10/12 07:09:59;;;;;;;51.88;20.02;;;;;;;7.09;100.00;95883.25;5035504;28;20300;-78
2021/10/12 07:12:25;;;;;;;47.13;19.38;;;;;;;7.03;100.00;95886.84;5056784;28;20037;-78
2021/10/12 07:14:50;;;;;;;59.35;20.80;;;;;;;7.03;100.00;95889.47;5052173;28;20048;-78
2021/10/12 07:17:16;;;;;;;52.95;20.60;;;;;;;7.28;100.00;95896.94;5048457;28;20068;-77
2021/10/12 07:19:42;;;;;;;49.63;19.88;;;;;;;7.27;100.00;95894.56;5039328;28;20045;-78
2021/10/12 07:22:07;;;;;;;57.55;21.98;;;;;;;7.09;100.00;95887.72;5050238;28;20045;-79
2021/10/12 07:24:33;;;;;;;51.38;19.77;;;;;;;7.26;100.00;95892.97;5050803;28;20045;-76
2021/10/12 07:26:58;;;;;;;54.40;19.52;;;;;;;7.22;100.00;95887.41;5051208;28;20098;-78
2021/10/12 07:29:24;;;;;;;49.13;19.80;;;;;;;7.30;100.00;95878.38;5030304;28;20387;-77
2021/10/12 07:31:50;;;;;;;55.38;20.27;;;;;;;7.35;100.00;95878.44;5049711;28;20067;-78
2021/10/12 07:34:15;;;;;;;50.88;19.75;;;;;;;7.31;100.00;95885.16;5050561;28;20041;-78
2021/10/12 07:36:41;;;;;;;51.47;21.05;;;;;;;7.31;100.00;95890.41;5051583;28;20037;-78
2021/10/12 07:39:08;;;;;;;49.30;20.42;;;;;;;7.17;100.00;95889.13;5050070;28;20040;-78
2021/10/12 07:41:34;;;;;;;53.35;21.65;;;;;;;7.31;100.00;95885.16;5052465;28;20045;-78
2021/10/12 07:44:00;;;;;;;53.80;21.13;;;;;;;7.25;100.00;95883.50;5061494;28;20040;-78
2021/10/12 07:46:26;;;;;;;55.45;20.77;;;;;;;7.23;100.00;95888.22;5033028;28;20449;-80
2021/10/12 07:48:53;;;;;;;53.00;20.50;;;;;;;7.22;100.00;95886.63;5040201;28;20068;-81
2021/10/12 07:51:20;;;;;;;53.33;21.08;;;;;;;7.35;100.00;95886.28;5050844;28;20045;-80
2021/10/12 07:53:46;;;;;;;51.50;20.17;;;;;;;7.32;100.00;95884.16;5051537;28;20113;-78
2021/10/12 07:56:17;;;;;;;53.80;20.20;;;;;;;7.38;100.00;95883.19;5040953;28;20109;-78
2021/10/12 07:58:43;;;;;;;45.83;18.70;;;;;;;7.50;100.00;95884.91;5046743;28;20041;-77
2021/10/12 08:01:09;;;;;;;52.10;21.33;;;;;;;7.45;100.00;95881.19;5020143;28;20068;-77
2021/10/12 08:03:35;;;;;;;49.25;20.70;;;;;;;7.55;100.00;95885.00;5043518;28;20052;-77
2021/10/12 08:06:00;;;;;;;60.58;21.40;;;;;;;7.66;100.00;95881.50;5043676;28;20092;-77
2021/10/12 08:08:26;;;;;;;48.03;19.70;;;;;;;7.59;100.00;95886.13;5033916;28;20041;-77
2021/10/12 08:10:53;;;;;;;45.55;19.30;;;;;;;7.51;100.00;95883.91;5050148;28;20045;-77
2021/10/12 08:13:21;;;;;;;54.28;20.52;;;;;;;7.66;100.00;95881.50;5047208;28;20056;-77
2021/10/12 08:15:55;;;;;;;52.45;20.70;;;;;;;7.65;100.00;95879.13;5037897;28;20432;-76
2021/10/12 08:18:24;;;;;;;51.03;20.67;;;;;;;7.60;100.00;95879.81;5037463;28;20037;-76
2021/10/12 08:20:50;;;;;;;49.58;20.15;;;;;;;7.73;100.00;95879.50;5042114;28;20546;-83
2021/10/12 08:23:15;;;;;;;51.97;20.58;;;;;;;7.77;100.00;95880.59;5049642;28;20040;-77
2021/10/12 08:25:41;;;;;;;48.38;17.50;;;;;;;7.86;100.00;95869.69;5039754;28;20057;-78
2021/10/12 08:28:07;;;;;;;50.15;19.73;;;;;;;7.86;100.00;95869.69;5016952;28;20048;-78
2021/10/12 08:30:32;;;;;;;52.88;20.42;;;;;;;7.91;100.00;95867.13;5034498;28;20076;-78
2021/10/12 08:32:58;;;;;;;48.05;18.60;;;;;;;8.03;100.00;95862.59;5042001;28;20041;-78
2021/10/12 08:35:23;;;;;;;46.78;18.27;;;;;;;8.00;100.00;95860.44;5031134;28;20061;-78
2021/10/12 08:37:52;;;;;;;52.45;20.23;;;;;;;7.87;100.00;95866.81;5027614;28;20044;-80
2021/10/12 08:40:18;;;;;;;48.72;18.92;;;;;;;7.88;100.00;95859.78;5032223;28;20111;-80
2021/10/12 08:42:47;;;;;;;50.03;19.00;;;;;;;7.88;100.00;95862.38;5033712;28;20117;-78
2021/10/12 08:45:14;;;;;;;43.72;18.63;;;;;;;7.82;100.00;95858.13;5015634;28;20565;-78
2021/10/12 08:47:40;;;;;;;41.03;16.00;;;;;;;7.91;99.26;95851.41;5037121;28;20700;-79
2021/10/12 08:50:09;;;;;;;41.38;16.67;;;;;;;7.85;97.73;95850.56;5047130;28;20055;-79
2021/10/12 08:52:35;;;;;;;35.45;15.35;;;;;;;7.89;98.70;95850.88;5050520;28;20688;-87
2021/10/12 08:55:01;;;;;;;33.45;13.88;;;;;;;7.76;96.67;95855.44;5035325;28;20045;-85
2021/10/12 08:57:38;;;;;;;32.80;14.18;;;;;;;7.87;98.23;95858.19;5050748;28;20037;-79
2021/10/12 09:00:12;;;;;;;36.55;14.15;;;;;;;7.89;97.82;95853.50;5045788;28;20045;-79
2021/10/12 09:05:52;;;;;;;35.47;13.15;;;;;;;7.92;97.93;95847.78;5042540;28;20580;-78
2021/10/12 09:08:27;;;;;;;27.92;13.02;;;;;;;7.84;97.97;95848.19;5042165;28;20049;-79
2021/10/12 09:10:54;;;;;;;26.20;11.23;;;;;;;7.93;96.60;95839.66;5031409;28;20057;-78
2021/10/12 09:13:20;;;;;;;29.30;11.98;;;;;;;7.94;97.94;95850.94;5041599;28;20059;-78
2021/10/12 09:16:14;;;;;;;24.98;11.25;;;;;;;7.93;96.21;95849.34;5038513;28;20789;-79
2021/10/12 09:18:46;;;;;;;23.43;10.73;;;;;;;7.93;94.99;95844.09;5028408;28;20049;-79
2021/10/12 09:21:33;;;;;;;22.00;8.68;;;;;;;8.08;93.61;95839.03;5051617;28;20061;-79
2021/10/12 09:24:18;;;;;;;17.25;8.55;;;;;;;8.12;94.52;95841.97;5045832;28;20056;-78
2021/10/12 09:26:47;;;;;;;18.02;8.10;;;;;;;8.09;93.51;95838.00;5029054;28;20049;-79
2021/10/12 09:29:24;;;;;;;17.98;8.55;;;;;;;8.25;92.57;95835.56;5046572;28;20052;-79
2021/10/12 09:31:50;;;;;;;16.23;8.27;;;;;;;8.25;92.28;95835.56;5044369;28;20507;-79
2021/10/12 09:34:18;;;;;;;22.63;8.90;;;;;;;8.23;92.49;95837.63;5024200;28;20045;-79
2021/10/12 09:36:45;;;;;;;21.73;9.82;;;;;;;8.10;93.91;95833.53;5032847;28;20075;-78
2021/10/12 09:39:17;;;;;;;21.27;8.77;;;;;;;8.20;92.31;95827.63;5045810;28;20029;-81
2021/10/12 09:41:44;;;;;;;24.70;10.63;;;;;;;8.09;94.67;95822.28;5037138;28;20541;-78
2021/10/12 09:44:13;;;;;;;25.98;11.57;;;;;;;8.22;94.59;95825.56;5047261;28;20033;-80
2021/10/12 09:46:45;;;;;;;34.33;13.05;;;;;;;8.28;94.37;95824.56;5032873;28;20588;-80
2021/10/12 09:49:15;;;;;;;28.42;12.48;;;;;;;8.30;95.26;95822.50;5030954;28;20041;-80
2021/10/12 09:51:54;;;;;;;28.35;12.85;;;;;;;8.29;96.69;95816.47;5026750;28;20069;-79
2021/10/12 09:54:21;;;;;;;27.65;13.30;;;;;;;8.08;96.07;95830.38;5048638;28;20045;-77
2021/10/12 09:56:48;;;;;;;36.00;15.27;;;;;;;8.10;99.04;95831.72;5045626;28;20156;-80
2021/10/12 09:59:14;;;;;;;31.75;12.15;;;;;;;7.72;97.57;95822.88;5029536;28;20128;-78
2021/10/12 10:01:40;;;;;;;22.60;10.50;;;;;;;7.42;96.94;95824.06;5049556;28;20103;-79
2021/10/12 10:04:07;;;;;;;21.20;10.45;;;;;;;7.32;97.80;95816.06;5046593;28;20090;-80
2021/10/12 10:06:33;;;;;;;22.58;10.32;;;;;;;7.33;98.96;95825.53;5049494;28;20061;-78
2021/10/12 10:09:00;;;;;;;26.10;11.55;;;;;;;7.13;99.44;95814.78;5048662;28;20048;-78
2021/10/12 10:11:28;;;;;;;27.55;12.10;;;;;;;7.25;99.76;95818.06;5047774;28;20044;-79
2021/10/12 10:13:55;;;;;;;29.80;12.48;;;;;;;7.32;100.00;95808.22;5047873;28;20052;-78
2021/10/12 10:16:21;;;;;;;29.80;13.38;;;;;;;7.38;100.00;95809.88;5045688;28;20065;-79
2021/10/12 10:18:47;;;;;;;31.40;14.45;;;;;;;7.49;100.00;95807.41;5047230;28;20046;-79
2021/10/12 10:21:12;;;;;;;37.20;15.15;;;;;;;7.61;100.00;95806.28;5055284;28;20033;-79
2021/10/12 10:23:53;;;;;;;33.60;15.57;;;;;;;7.90;100.00;95807.91;5045851;28;20502;-80
2021/10/12 10:26:45;;;;;;;39.30;15.85;;;;;;;8.04;100.00;95793.38;5020128;28;20045;-78
2021/10/12 10:29:22;;;;;;;36.85;17.08;;;;;;;8.20;100.00;95785.69;5030953;28;20052;-79
2021/10/12 10:31:52;;;;;;;38.40;15.73;;;;;;;8.30;100.00;95781.34;5054066;28;20081;-78
2021/10/12 10:34:35;;;;;;;41.53;16.33;;;;;;;8.36;98.43;95779.56;5021342;28;20264;-78
2021/10/12 10:37:15;;;;;;;35.03;15.80;;;;;;;8.18;100.00;95769.41;5055162;28;20061;-77
2021/10/12 10:39:49;;;;;;;40.60;15.25;;;;;;;8.29;99.33;95763.25;5052498;28;20048;-78
2021/10/12 10:42:27;;;;;;;30.63;14.80;;;;;;;8.21;98.95;95750.56;5051180;28;20133;-78
2021/10/12 10:44:54;;;;;;;36.45;15.98;;;;;;;8.05;99.75;95753.03;5042063;28;20091;-77
2021/10/12 10:47:42;;;;;;;33.13;14.60;;;;;;;8.31;98.66;95755.91;5048898;28;20110;-78
2021/10/12 10:50:25;;;;;;;30.92;13.85;;;;;;;8.30;99.10;95744.63;5032621;28;20041;-78
2021/10/12 10:52:54;;;;;;;33.22;14.48;;;;;;;8.34;99.24;95744.91;5036669;28;20061;-79
2021/10/12 10:55:22;;;;;;;31.23;14.48;;;;;;;8.30;98.13;95743.81;5044661;28;20044;-83
2021/10/12 10:58:08;;;;;;;35.92;14.10;;;;;;;8.28;97.78;95740.66;5042191;28;20058;-79
2021/10/12 11:00:50;;;;;;;30.80;13.80;;;;;;;8.11;98.30;95731.06;5033563;28;20053;-79
2021/10/12 11:03:32;;;;;;;38.58;14.73;;;;;;;8.05;100.00;95732.06;5048697;28;20053;-78
2021/10/12 11:05:59;;;;;;;32.95;14.27;;;;;;;8.10;99.37;95728.69;5052714;28;20103;-79
2021/10/12 11:08:29;;;;;;;32.85;14.40;;;;;;;8.21;98.65;95725.13;5049980;28;20080;-79
2021/10/12 11:11:07;;;;;;;31.77;13.45;;;;;;;8.22;100.00;95721.47;5044234;28;20060;-78
2021/10/12 11:13:42;;;;;;;34.90;14.10;;;;;;;8.32;98.84;95720.78;5050477;28;20056;-79
2021/10/12 11:16:10;;;;;;;29.00;13.77;;;;;;;8.40;98.57;95711.66;5038576;28;20048;-78
2021/10/12 11:18:37;;;;;;;32.90;15.23;;;;;;;8.43;98.42;95705.91;5046564;28;20056;-78
2021/10/12 11:21:17;;;;;;;44.42;16.08;;;;;;;8.40;97.96;95704.56;5036223;28;20053;-79
2021/10/12 11:23:49;;;;;;;29.45;13.48;;;;;;;8.57;98.32;95707.09;5041337;28;20053;-79